Time;durP1;ratioP1;P1;durP2;ratioP2;P2;SDS_P1;SDS_P2;PMS_P1;PMS_P2;Temp;Humidity;BMP_temperature;BMP_pressure;BME280_temperature;BME280_humidity;BME280_pressure;Samples;Min_cycle;Max_cycle;Signal;HPM_P1;HPM_P2
2023/12/31 00:00:41;;;;;;;43.42;11.63;;;;;;;-144.73;100.00;54695.06;5030559;28;20032;-74
2023/12/31 00:03:06;;;;;;;44.33;12.32;;;;;;;-144.73;100.00;54713.53;5031730;28;20029;-74
2023/12/31 00:05:33;;;;;;;51.33;12.52;;;;;;;-144.73;100.00;54684.78;5030107;28;20488;-75
2023/12/31 00:07:58;;;;;;;46.63;11.48;;;;;;;-144.73;100.00;54695.06;5030113;28;20224;-74
2023/12/31 00:10:24;;;;;;;37.08;10.80;;;;;;;-144.73;100.00;54670.44;5029964;28;20021;-74
2023/12/31 00:12:49;;;;;;;39.55;10.52;;;;;;;-144.73;100.00;54703.28;5030913;28;20026;-74
2023/12/31 00:15:15;;;;;;;38.90;10.82;;;;;;;-144.73;100.00;54699.16;5029369;28;20029;-74
2023/12/31 00:17:40;;;;;;;35.38;10.90;;;;;;;-144.73;100.00;54672.47;5028368;28;20416;-74
2023/12/31 00:20:06;;;;;;;41.05;10.85;;;;;;;-144.73;100.00;54682.75;5030043;28;20025;-73
2023/12/31 00:22:31;;;;;;;35.63;9.80;;;;;;;-144.73;100.00;54641.69;5026698;28;20054;-74
2023/12/31 00:24:59;;;;;;;34.22;10.05;;;;;;;-144.73;100.00;54701.22;5014818;28;20133;-74
2023/12/31 00:27:25;;;;;;;39.30;10.50;;;;;;;-144.73;100.00;54695.06;5011933;28;20033;-74
2023/12/31 00:29:53;;;;;;;37.85;10.68;;;;;;;-144.73;100.00;54672.47;5014640;28;20029;-74
2023/12/31 00:32:19;;;;;;;33.65;10.05;;;;;;;-144.73;100.00;54695.06;5023156;28;20037;-73
2023/12/31 00:34:44;;;;;;;40.88;9.60;;;;;;;-144.73;100.00;54645.78;5029289;28;20026;-74
2023/12/31 00:37:09;;;;;;;32.30;9.52;;;;;;;-144.73;100.00;54682.75;5024841;28;20032;-72
2023/12/31 00:39:34;;;;;;;29.50;8.95;;;;;;;-144.73;100.00;54709.44;5030040;28;20026;-73
2023/12/31 00:42:00;;;;;;;29.05;7.35;;;;;;;-144.73;100.00;54670.44;5029346;28;20061;-72
2023/12/31 00:44:25;;;;;;;29.70;8.20;;;;;;;-144.73;100.00;54686.84;5030038;28;20021;-74
2023/12/31 00:46:51;;;;;;;34.50;9.45;;;;;;;-144.73;100.00;54705.31;5029524;28;20079;-73
2023/12/31 00:49:20;;;;;;;40.80;9.15;;;;;;;-144.73;100.00;54649.91;5030624;28;20026;-74
2023/12/31 00:51:45;;;;;;;36.17;9.30;;;;;;;-144.73;100.00;54682.75;5026403;28;20034;-74
2023/12/31 00:54:10;;;;;;;27.75;8.07;;;;;;;-144.73;100.00;54654.00;5012736;28;20029;-73
2023/12/31 00:56:42;;;;;;;29.10;7.72;;;;;;;-144.73;100.00;54670.44;5012255;28;20509;-73
2023/12/31 00:59:07;;;;;;;25.55;8.13;;;;;;;-144.73;100.00;54670.44;5027677;28;20022;-73
2023/12/31 01:01:39;;;;;;;28.25;8.18;;;;;;;-144.73;100.00;54670.44;5017965;28;20048;-74
2023/12/31 01:04:04;;;;;;;39.00;7.95;;;;;;;-144.73;100.00;54654.00;5021624;28;20025;-73
2023/12/31 01:06:32;;;;;;;28.85;8.40;;;;;;;-144.73;100.00;54721.75;5048013;28;20090;-73
2023/12/31 01:08:59;;;;;;;19.10;7.20;;;;;;;-144.73;100.00;54707.38;5034214;28;20084;-73
2023/12/31 01:11:25;;;;;;;27.55;7.10;;;;;;;-144.73;100.00;54703.28;5033336;28;20025;-74
2023/12/31 01:13:50;;;;;;;38.47;7.38;;;;;;;-144.73;100.00;54688.91;5017688;28;20022;-75
2023/12/31 01:16:16;;;;;;;32.35;7.18;;;;;;;-144.73;100.00;54682.75;5013700;28;20030;-74
2023/12/31 01:18:42;;;;;;;26.52;8.27;;;;;;;-144.73;100.00;54744.31;5014553;28;20053;-74
2023/12/31 01:21:08;;;;;;;27.60;7.55;;;;;;;-144.73;100.00;54686.84;5030749;28;20476;-74
2023/12/31 01:23:33;;;;;;;29.30;7.35;;;;;;;-144.73;100.00;54674.53;5047976;28;20045;-74
2023/12/31 01:25:59;;;;;;;25.50;6.45;;;;;;;-144.73;100.00;54670.44;5033255;28;20022;-74
2023/12/31 01:28:24;;;;;;;23.45;6.93;;;;;;;-144.73;100.00;54715.59;5028731;28;20025;-74
2023/12/31 01:30:49;;;;;;;29.27;7.15;;;;;;;-144.73;100.00;54670.44;5033856;28;20029;-74
2023/12/31 01:33:15;;;;;;;21.27;6.45;;;;;;;-144.73;100.00;54703.28;5031927;28;20178;-73
2023/12/31 01:35:40;;;;;;;30.77;6.70;;;;;;;-144.73;100.00;54658.13;5033354;28;20055;-73
2023/12/31 01:38:05;;;;;;;26.73;7.15;;;;;;;-144.73;100.00;54662.22;5028173;28;20029;-73
2023/12/31 01:40:31;;;;;;;34.15;7.25;;;;;;;-144.73;100.00;54686.84;5030838;28;20032;-73
2023/12/31 01:42:56;;;;;;;20.63;6.20;;;;;;;-144.73;100.00;54690.97;5048396;28;20043;-73
2023/12/31 01:45:22;;;;;;;22.73;6.43;;;;;;;-144.73;100.00;54690.97;5034793;28;20071;-74
2023/12/31 01:47:47;;;;;;;19.40;6.00;;;;;;;-144.73;100.00;54703.28;5032568;28;20520;-73
2023/12/31 01:50:14;;;;;;;24.23;5.95;;;;;;;-144.73;100.00;54670.44;5034349;28;20033;-74
2023/12/31 01:52:41;;;;;;;24.58;6.57;;;;;;;-144.73;100.00;54682.75;5031840;28;20108;-71
2023/12/31 01:55:10;;;;;;;22.77;6.18;;;;;;;-144.73;100.00;54699.16;5033326;28;20030;-73
2023/12/31 01:57:37;;;;;;;27.73;5.72;;;;;;;-144.73;100.00;54647.84;5032617;28;20052;-73
2023/12/31 02:00:06;;;;;;;28.00;6.22;;;;;;;-144.73;100.00;54670.44;5031218;28;20025;-74
2023/12/31 02:02:31;;;;;;;26.38;5.43;;;;;;;-144.73;100.00;54678.63;5030453;28;20488;-73
2023/12/31 02:04:57;;;;;;;27.70;6.20;;;;;;;-144.73;100.00;54682.75;5032725;28;20033;-74
2023/12/31 02:07:23;;;;;;;23.25;5.32;;;;;;;-144.73;100.00;54688.91;5029567;28;20025;-75
2023/12/31 02:09:50;;;;;;;24.15;5.22;;;;;;;-144.73;100.00;54695.06;5032590;28;20034;-74
2023/12/31 02:12:23;;;;;;;17.27;5.55;;;;;;;-144.73;100.00;54686.84;5032487;28;20476;-73
2023/12/31 02:14:48;;;;;;;21.80;4.93;;;;;;;-144.73;100.00;54688.91;5031011;28;20042;-74
2023/12/31 02:17:13;;;;;;;24.85;5.85;;;;;;;-144.73;100.00;54678.63;5028487;28;20050;-73
2023/12/31 02:19:38;;;;;;;25.67;5.30;;;;;;;-144.73;100.00;54686.84;5029218;28;20114;-73
2023/12/31 02:22:08;;;;;;;20.67;5.05;;;;;;;-144.73;100.00;54695.06;5025127;28;20065;-73
2023/12/31 02:24:50;;;;;;;28.75;5.38;;;;;;;-144.73;100.00;54662.22;5013100;28;20100;-73
2023/12/31 02:27:16;;;;;;;29.20;4.90;;;;;;;-144.73;100.00;54686.84;5009577;28;20022;-73
2023/12/31 02:29:42;;;;;;;22.45;5.00;;;;;;;-144.73;100.00;54649.91;5012951;28;20051;-73
2023/12/31 02:32:07;;;;;;;18.02;4.63;;;;;;;-144.73;100.00;54625.28;5023314;28;20033;-73
2023/12/31 02:34:33;;;;;;;19.77;4.78;;;;;;;-144.73;100.00;54682.75;5032215;28;20033;-72
2023/12/31 02:36:58;;;;;;;19.63;4.25;;;;;;;-144.73;100.00;54703.28;5031637;28;20061;-73
2023/12/31 02:39:24;;;;;;;19.40;5.03;;;;;;;-144.73;100.00;54732.00;5033679;28;20112;-73
2023/12/31 02:41:50;;;;;;;18.50;4.55;;;;;;;-144.73;100.00;54693.00;5030792;28;20091;-73
2023/12/31 02:44:16;;;;;;;19.65;4.75;;;;;;;-144.73;100.00;54680.69;5030070;28;20108;-73
2023/12/31 02:46:41;;;;;;;15.95;3.65;;;;;;;-144.73;100.00;54682.75;5046149;28;20080;-73
2023/12/31 02:49:08;;;;;;;25.83;5.18;;;;;;;-144.73;100.00;54707.38;5031393;28;20025;-73
2023/12/31 02:51:34;;;;;;;12.55;4.25;;;;;;;-144.73;100.00;54727.91;5028964;28;20041;-75
2023/12/31 02:54:00;;;;;;;12.40;3.22;;;;;;;-144.73;100.00;54727.91;5013024;28;20099;-73
2023/12/31 02:56:25;;;;;;;17.92;4.50;;;;;;;-144.73;100.00;54680.69;5019685;28;20072;-72
2023/12/31 02:58:51;;;;;;;15.43;3.60;;;;;;;-144.73;100.00;54686.84;5021015;28;20037;-73
2023/12/31 03:01:16;;;;;;;15.98;4.38;;;;;;;-144.73;100.00;54695.06;5011740;28;20373;-73
2023/12/31 03:03:42;;;;;;;11.32;3.17;;;;;;;-144.73;100.00;54688.91;5043924;28;20494;-73
2023/12/31 03:06:07;;;;;;;11.80;3.22;;;;;;;-144.73;100.00;54695.06;5030523;28;20060;-74
2023/12/31 03:08:35;;;;;;;15.88;3.65;;;;;;;-144.73;100.00;54695.06;5030638;28;20050;-72
2023/12/31 03:11:01;;;;;;;20.65;5.22;;;;;;;-144.73;100.00;54695.06;5024467;28;20045;-74
2023/12/31 03:13:26;;;;;;;21.15;3.85;;;;;;;-144.73;100.00;54699.16;5027092;28;20068;-73
2023/12/31 03:15:52;;;;;;;17.05;3.63;;;;;;;-144.73;100.00;54695.06;5031575;28;20083;-73
2023/12/31 03:18:17;;;;;;;14.40;3.97;;;;;;;-144.73;100.00;54682.75;5030911;28;20381;-73
2023/12/31 03:20:43;;;;;;;17.08;3.70;;;;;;;-144.73;100.00;54682.75;5028742;28;20028;-74
2023/12/31 03:23:08;;;;;;;16.88;3.25;;;;;;;-144.73;100.00;54736.13;5028304;28;20032;-73
2023/12/31 03:25:34;;;;;;;16.95;3.10;;;;;;;-144.73;100.00;54678.63;5031610;28;20061;-73
2023/12/31 03:28:02;;;;;;;12.20;3.47;;;;;;;-144.73;100.00;54690.97;5028075;28;20053;-73
2023/12/31 03:30:28;;;;;;;17.77;3.08;;;;;;;-144.73;100.00;54674.53;5028672;28;20037;-73
2023/12/31 03:32:53;;;;;;;13.20;3.65;;;;;;;-144.73;100.00;54682.75;5030932;28;20114;-73
2023/12/31 03:35:18;;;;;;;16.83;2.97;;;;;;;-144.73;100.00;54699.16;5031455;28;20067;-74
2023/12/31 03:37:46;;;;;;;13.38;3.92;;;;;;;-144.73;100.00;54670.44;5030388;28;20037;-73
2023/12/31 03:40:13;;;;;;;14.73;3.10;;;;;;;-144.73;100.00;54711.47;5027650;28;20036;-74
2023/12/31 03:42:38;;;;;;;9.20;3.08;;;;;;;-144.73;100.00;54715.59;5038926;28;20041;-73
2023/12/31 03:45:04;;;;;;;14.00;3.70;;;;;;;-144.73;100.00;54711.47;5019825;28;20026;-74
2023/12/31 03:47:29;;;;;;;14.18;3.45;;;;;;;-144.73;100.00;54736.13;5027172;28;20505;-73
2023/12/31 03:49:54;;;;;;;14.02;2.90;;;;;;;-144.73;100.00;54670.44;5011727;28;20115;-74
2023/12/31 03:52:20;;;;;;;12.55;2.55;;;;;;;-144.73;100.00;54674.53;5035316;28;20033;-73
2023/12/31 03:54:45;;;;;;;15.80;3.05;;;;;;;-144.73;100.00;54695.06;5028712;28;20030;-74
2023/12/31 03:57:10;;;;;;;18.20;3.53;;;;;;;-144.73;100.00;54699.16;5031597;28;20036;-72
2023/12/31 03:59:36;;;;;;;12.02;2.60;;;;;;;-144.73;100.00;54695.06;5027721;28;20026;-73
2023/12/31 04:02:01;;;;;;;14.13;2.60;;;;;;;-144.73;100.00;54697.13;5029772;28;20029;-74
2023/12/31 04:04:29;;;;;;;22.20;3.10;;;;;;;-144.73;100.00;54719.69;5028932;28;20036;-74
2023/12/31 04:06:54;;;;;;;15.10;2.95;;;;;;;-144.73;100.00;54690.97;5028762;28;20053;-73
2023/12/31 04:09:20;;;;;;;18.95;3.08;;;;;;;-144.73;100.00;54670.44;5027344;28;20511;-73
2023/12/31 04:11:45;;;;;;;12.15;2.80;;;;;;;-144.73;100.00;54688.91;5027855;28;20124;-74
2023/12/31 04:14:11;;;;;;;17.17;3.15;;;;;;;-144.73;100.00;54690.97;5025158;28;20049;-72
2023/12/31 04:16:36;;;;;;;20.45;3.97;;;;;;;-144.73;100.00;54732.00;5026389;28;20049;-73
2023/12/31 04:19:01;;;;;;;15.10;3.50;;;;;;;-144.73;100.00;54670.44;5024730;28;20036;-73
2023/12/31 04:21:27;;;;;;;15.65;3.33;;;;;;;-144.73;100.00;54699.16;5022741;28;20107;-74
2023/12/31 04:23:52;;;;;;;20.83;3.22;;;;;;;-144.73;100.00;54621.16;5029334;28;20083;-73
2023/12/31 04:26:18;;;;;;;11.43;3.70;;;;;;;-144.73;100.00;54678.63;5027683;28;20083;-73
2023/12/31 04:28:44;;;;;;;16.38;4.03;;;;;;;-144.73;100.00;54699.16;5026941;28;20026;-74
2023/12/31 04:31:09;;;;;;;23.42;3.28;;;;;;;-144.73;100.00;54686.84;5026381;28;20120;-74
2023/12/31 04:33:35;;;;;;;17.13;3.33;;;;;;;-144.73;100.00;54695.06;5029601;28;20033;-74
2023/12/31 04:36:05;;;;;;;14.75;2.90;;;;;;;-144.73;100.00;54711.47;5029916;28;20026;-74
2023/12/31 04:38:31;;;;;;;18.65;3.55;;;;;;;-144.73;100.00;54670.44;5027561;28;20496;-74
2023/12/31 04:40:56;;;;;;;8.48;2.70;;;;;;;-144.73;100.00;54707.38;5026599;28;20094;-74
2023/12/31 04:43:22;;;;;;;15.43;4.07;;;;;;;-144.73;100.00;54678.63;5011346;28;20120;-73
2023/12/31 04:45:47;;;;;;;14.80;3.63;;;;;;;-144.73;100.00;54719.69;5027718;28;20112;-73
2023/12/31 04:48:12;;;;;;;17.27;4.32;;;;;;;-144.73;100.00;54678.63;5011803;28;20117;-74
2023/12/31 04:50:38;;;;;;;19.73;4.15;;;;;;;-144.73;100.00;54690.97;5012089;28;20033;-73
2023/12/31 04:53:03;;;;;;;16.65;4.10;;;;;;;-144.73;100.00;54736.13;5025091;28;20037;-74
2023/12/31 04:55:31;;;;;;;17.42;3.20;;;;;;;-144.73;100.00;54703.28;5021255;28;20503;-73
2023/12/31 04:57:56;;;;;;;15.63;3.72;;;;;;;-144.73;100.00;54670.44;5023256;28;20031;-72
2023/12/31 05:00:21;;;;;;;11.75;2.97;;;;;;;-144.73;100.00;54658.13;5017546;28;20032;-72
2023/12/31 05:02:47;;;;;;;10.40;2.92;;;;;;;-144.73;100.00;54715.59;5016812;28;20130;-74
2023/12/31 05:05:12;;;;;;;14.05;3.92;;;;;;;-144.73;100.00;54660.16;5019111;28;20377;-74
2023/12/31 05:07:38;;;;;;;17.80;3.70;;;;;;;-144.73;100.00;54690.97;5022422;28;20515;-74
2023/12/31 05:10:04;;;;;;;20.45;4.45;;;;;;;-144.73;100.00;54682.75;5038624;28;20116;-74
2023/12/31 05:12:30;;;;;;;12.30;3.05;;;;;;;-144.73;100.00;54760.75;5023726;28;20045;-75
2023/12/31 05:14:55;;;;;;;14.77;3.53;;;;;;;-144.73;100.00;54695.06;5022312;28;20030;-75
2023/12/31 05:17:20;;;;;;;17.85;3.65;;;;;;;-144.73;100.00;54707.38;5034534;28;20064;-75
2023/12/31 05:19:47;;;;;;;14.00;3.33;;;;;;;-144.73;100.00;54717.66;5025820;28;20033;-74
2023/12/31 05:22:12;;;;;;;13.75;3.30;;;;;;;-144.73;100.00;54695.06;5025555;28;20072;-74
2023/12/31 05:24:37;;;;;;;11.05;3.25;;;;;;;-144.73;100.00;54674.53;5030397;28;20056;-75
2023/12/31 05:27:03;;;;;;;15.48;3.15;;;;;;;-144.73;100.00;54711.47;5026035;28;20061;-75
2023/12/31 05:29:28;;;;;;;18.63;4.10;;;;;;;-144.73;100.00;54695.06;5022607;28;20022;-74
2023/12/31 05:31:54;;;;;;;13.15;3.47;;;;;;;-144.73;100.00;54682.75;5027528;28;20048;-74
2023/12/31 05:34:19;;;;;;;9.63;3.42;;;;;;;-144.73;100.00;54649.91;5023620;28;20022;-74
2023/12/31 05:36:44;;;;;;;14.18;3.88;;;;;;;-144.73;100.00;54690.97;5029283;28;20168;-74
2023/12/31 05:39:11;;;;;;;23.38;3.90;;;;;;;-144.73;100.00;54711.47;5029689;28;20117;-74
2023/12/31 05:41:37;;;;;;;14.07;3.38;;;;;;;-144.73;100.00;54649.91;5026426;28;20044;-74
2023/12/31 05:44:03;;;;;;;15.23;3.38;;;;;;;-144.73;100.00;54695.06;5028601;28;20026;-75
2023/12/31 05:46:29;;;;;;;20.95;3.78;;;;;;;-144.73;100.00;54719.69;5025887;28;20040;-75
2023/12/31 05:48:55;;;;;;;15.02;3.67;;;;;;;-144.73;100.00;54695.06;5033185;28;20021;-74
2023/12/31 05:51:20;;;;;;;8.38;2.88;;;;;;;-144.73;100.00;54707.38;5033178;28;20033;-75
2023/12/31 05:53:45;;;;;;;19.90;4.45;;;;;;;-144.73;100.00;54727.91;5032679;28;20033;-75
2023/12/31 05:56:11;;;;;;;15.10;3.80;;;;;;;-144.73;100.00;54695.06;5033035;28;20017;-75
2023/12/31 05:58:37;;;;;;;20.20;3.63;;;;;;;-144.73;100.00;54695.06;5026481;28;20049;-75
2023/12/31 06:01:02;;;;;;;11.82;3.22;;;;;;;-144.73;100.00;54705.31;5033316;28;20064;-74
2023/12/31 06:03:28;;;;;;;18.73;3.45;;;;;;;-144.73;100.00;54707.38;5025638;28;20030;-75
2023/12/31 06:05:53;;;;;;;10.10;2.95;;;;;;;-144.73;100.00;54686.84;5024525;28;20028;-75
2023/12/31 06:08:18;;;;;;;21.33;4.15;;;;;;;-144.73;100.00;54711.47;5027891;28;20026;-75
2023/12/31 06:10:44;;;;;;;15.48;4.10;;;;;;;-144.73;100.00;54711.47;5022769;28;20084;-75
2023/12/31 06:13:09;;;;;;;16.58;3.70;;;;;;;-144.73;100.00;54701.22;5024189;28;20053;-75
2023/12/31 06:15:34;;;;;;;13.45;3.28;;;;;;;-144.73;100.00;54719.69;5021205;28;20038;-75
2023/12/31 06:18:00;;;;;;;16.88;2.80;;;;;;;-144.73;100.00;54686.84;5041372;28;20497;-75
2023/12/31 06:20:25;;;;;;;6.13;2.47;;;;;;;-144.73;100.00;54674.53;5024355;28;20451;-75
2023/12/31 06:22:50;;;;;;;15.00;3.17;;;;;;;-144.73;100.00;54658.13;5025229;28;20057;-75
2023/12/31 06:25:16;;;;;;;12.77;2.95;;;;;;;-144.73;100.00;54699.16;5038980;28;20021;-74
2023/12/31 06:27:41;;;;;;;17.52;3.78;;;;;;;-144.73;100.00;54670.44;5023395;28;20516;-74
2023/12/31 06:30:07;;;;;;;20.40;4.10;;;;;;;-144.73;100.00;54701.22;5027230;28;20493;-74
2023/12/31 06:32:33;;;;;;;14.85;3.15;;;;;;;-144.73;100.00;54711.47;5023678;28;20033;-74
2023/12/31 06:34:58;;;;;;;11.27;2.95;;;;;;;-144.73;100.00;54674.53;5023998;28;20028;-74
2023/12/31 06:37:23;;;;;;;15.93;2.83;;;;;;;-144.73;100.00;54703.28;5026908;28;20041;-74
2023/12/31 06:39:49;;;;;;;11.82;3.63;;;;;;;-144.73;100.00;54686.84;5025938;28;20084;-74
2023/12/31 06:42:15;;;;;;;9.85;2.80;;;;;;;-144.73;100.00;54686.84;5028198;28;20037;-73
2023/12/31 06:44:41;;;;;;;13.50;3.05;;;;;;;-144.73;100.00;54686.84;5019675;28;20044;-73
2023/12/31 06:47:06;;;;;;;10.50;2.55;;;;;;;-144.73;100.00;54695.06;5022273;28;20041;-73
2023/12/31 06:49:32;;;;;;;12.43;3.00;;;;;;;-144.73;100.00;54723.81;5029237;28;20369;-74
2023/12/31 06:51:57;;;;;;;22.33;3.20;;;;;;;-144.73;100.00;54678.63;5019059;28;20030;-73
2023/12/31 06:54:22;;;;;;;14.27;3.58;;;;;;;-144.73;100.00;54676.59;5025067;28;20026;-72
2023/12/31 06:56:48;;;;;;;12.73;3.17;;;;;;;-144.73;100.00;54674.53;5011828;28;20030;-72
2023/12/31 06:59:14;;;;;;;12.82;4.03;;;;;;;-144.73;100.00;54690.97;5014246;28;20076;-73
2023/12/31 07:01:39;;;;;;;14.27;3.10;;;;;;;-144.73;100.00;54672.47;5015712;28;20044;-73
2023/12/31 07:04:04;;;;;;;11.27;2.95;;;;;;;-144.73;100.00;54703.28;5023687;28;20029;-74
2023/12/31 07:06:30;;;;;;;17.13;4.03;;;;;;;-144.73;100.00;54711.47;5019056;28;20098;-73
2023/12/31 07:08:55;;;;;;;12.85;3.38;;;;;;;-144.73;100.00;54684.78;5028421;28;20032;-74
2023/12/31 07:11:21;;;;;;;12.68;3.28;;;;;;;-144.73;100.00;54701.22;5023044;28;20107;-76
2023/12/31 07:13:46;;;;;;;16.13;3.53;;;;;;;-144.73;100.00;54707.38;5012642;28;20180;-74
2023/12/31 07:16:14;;;;;;;14.20;3.55;;;;;;;-144.73;100.00;54678.63;5012292;28;20105;-74
2023/12/31 07:18:39;;;;;;;11.55;3.53;;;;;;;-144.73;100.00;54699.16;5020711;28;20026;-74
2023/12/31 07:21:05;;;;;;;11.40;3.08;;;;;;;-144.73;100.00;54670.44;5013766;28;20025;-73
2023/12/31 07:23:30;;;;;;;15.00;3.40;;;;;;;-144.73;100.00;54711.47;5026495;28;20041;-74
2023/12/31 07:25:56;;;;;;;14.48;4.07;;;;;;;-144.73;100.00;54674.53;5030132;28;20022;-73
2023/12/31 07:28:21;;;;;;;20.45;4.20;;;;;;;-144.73;100.00;54715.59;5030306;28;20814;-75
2023/12/31 07:30:47;;;;;;;15.10;3.92;;;;;;;-144.73;100.00;54658.13;5031076;28;20021;-75
2023/12/31 07:33:13;;;;;;;16.33;4.03;;;;;;;-144.73;100.00;54719.69;5012042;28;20034;-74
2023/12/31 07:35:38;;;;;;;20.85;4.00;;;;;;;-144.73;100.00;54723.81;5015809;28;20088;-74
2023/12/31 07:38:05;;;;;;;16.50;4.28;;;;;;;-144.73;100.00;54690.97;5010990;28;20030;-74
2023/12/31 07:40:31;;;;;;;12.23;3.45;;;;;;;-144.73;100.00;54682.75;5013031;28;20034;-73
2023/12/31 07:42:56;;;;;;;15.95;4.35;;;;;;;-144.73;100.00;54682.75;5028484;28;20046;-74
2023/12/31 07:45:22;;;;;;;18.17;8.88;;;;;;;-144.73;100.00;54662.22;5030760;28;20431;-74
2023/12/31 07:47:48;;;;;;;16.63;4.18;;;;;;;-144.73;100.00;54711.47;5030246;28;20061;-73
2023/12/31 07:50:14;;;;;;;25.02;4.05;;;;;;;-144.73;100.00;54725.84;5031875;28;20510;-73
2023/12/31 07:52:39;;;;;;;15.63;3.90;;;;;;;-144.73;100.00;54686.84;5016399;28;20030;-74
2023/12/31 07:55:08;;;;;;;14.00;3.85;;;;;;;-144.73;100.00;54649.91;5012542;28;20026;-74
2023/12/31 07:57:34;;;;;;;12.38;3.72;;;;;;;-144.73;100.00;54670.44;5010639;28;20813;-74
2023/12/31 08:00:00;;;;;;;14.23;3.35;;;;;;;-144.73;100.00;54715.59;5012710;28;20109;-74
2023/12/31 08:02:25;;;;;;;15.05;3.88;;;;;;;-144.73;100.00;54695.06;5019893;28;20084;-74
2023/12/31 08:04:51;;;;;;;29.05;4.85;;;;;;;-144.73;100.00;54670.44;5029976;28;20121;-74
2023/12/31 08:07:16;;;;;;;13.57;3.60;;;;;;;-144.73;100.00;54697.13;5029849;28;20026;-73
2023/12/31 08:09:42;;;;;;;18.38;3.63;;;;;;;-144.73;100.00;54695.06;5030328;28;20029;-74
2023/12/31 08:12:07;;;;;;;17.27;4.50;;;;;;;-144.73;100.00;54678.63;5029209;28;20034;-73
2023/12/31 08:14:32;;;;;;;13.23;3.53;;;;;;;-144.73;100.00;54736.13;5023659;28;20018;-74
2023/12/31 08:16:58;;;;;;;13.38;3.90;;;;;;;-144.73;100.00;54686.84;5030937;28;20092;-74
2023/12/31 08:19:23;;;;;;;12.95;4.18;;;;;;;-144.73;100.00;54732.00;5029252;28;20387;-74
2023/12/31 08:21:49;;;;;;;12.40;3.85;;;;;;;-144.73;100.00;54715.59;5030331;28;20038;-73
2023/12/31 08:24:19;;;;;;;13.65;3.80;;;;;;;-144.73;100.00;54699.16;5030745;28;20022;-74
2023/12/31 08:26:47;;;;;;;18.20;4.47;;;;;;;-144.73;100.00;54725.84;5028174;28;20039;-75
2023/12/31 08:29:12;;;;;;;20.33;4.50;;;;;;;-144.73;100.00;54723.81;5030292;28;20025;-74
2023/12/31 08:31:38;;;;;;;14.15;3.42;;;;;;;-144.73;100.00;54686.84;5029895;28;20082;-74
2023/12/31 08:34:03;;;;;;;13.02;3.80;;;;;;;-144.73;100.00;54672.47;5030443;28;20030;-74
2023/12/31 08:36:29;;;;;;;13.15;3.72;;;;;;;-144.73;100.00;54695.06;5030717;28;20017;-74
2023/12/31 08:38:55;;;;;;;13.07;3.90;;;;;;;-144.73;100.00;54682.75;5029810;28;20068;-74
2023/12/31 08:41:20;;;;;;;15.63;4.45;;;;;;;-144.73;100.00;54723.81;5026670;28;20144;-73
2023/12/31 08:43:46;;;;;;;12.20;3.92;;;;;;;-144.73;100.00;54715.59;5010861;28;20026;-74
2023/12/31 08:46:12;;;;;;;8.88;3.80;;;;;;;-144.73;100.00;54695.06;5014283;28;20108;-73
2023/12/31 08:48:37;;;;;;;13.57;3.75;;;;;;;-144.73;100.00;54699.16;5010368;28;20057;-74
2023/12/31 08:51:03;;;;;;;9.20;3.58;;;;;;;-144.73;100.00;54707.38;5010662;28;20026;-74
2023/12/31 08:53:29;;;;;;;13.68;3.67;;;;;;;-144.73;100.00;54715.59;5027816;28;20489;-74
2023/12/31 08:55:54;;;;;;;22.98;3.80;;;;;;;-144.73;100.00;54686.84;5029601;28;20025;-73
2023/12/31 08:58:20;;;;;;;7.63;3.38;;;;;;;-144.73;100.00;54711.47;5028940;28;20037;-74
2023/12/31 09:00:45;;;;;;;15.93;3.40;;;;;;;-144.73;100.00;54686.84;5026321;28;20052;-75
2023/12/31 09:03:11;;;;;;;12.70;3.55;;;;;;;-144.73;100.00;54690.97;5009778;28;20043;-74
2023/12/31 09:05:36;;;;;;;18.95;3.85;;;;;;;-144.73;100.00;54695.06;5014849;28;20041;-74
2023/12/31 09:08:04;;;;;;;8.63;3.58;;;;;;;-144.73;100.00;54686.84;5010046;28;20030;-73
2023/12/31 09:10:30;;;;;;;11.18;3.42;;;;;;;-144.73;100.00;54719.69;5010942;28;20033;-74
2023/12/31 09:12:55;;;;;;;13.75;3.45;;;;;;;-144.73;100.00;54727.91;5021799;28;20034;-74
2023/12/31 09:15:20;;;;;;;10.65;3.78;;;;;;;-144.73;100.00;54699.16;5029760;28;20026;-74
2023/12/31 09:17:46;;;;;;;14.43;3.63;;;;;;;-144.73;100.00;54649.91;5047567;28;20030;-74
2023/12/31 09:20:11;;;;;;;8.50;3.85;;;;;;;-144.73;100.00;54682.75;5030230;28;20021;-74
2023/12/31 09:22:37;;;;;;;12.48;3.50;;;;;;;-144.73;100.00;54744.31;5032564;28;20102;-74
2023/12/31 09:25:05;;;;;;;9.70;3.42;;;;;;;-144.73;100.00;54695.06;5010061;28;20037;-73
2023/12/31 09:27:31;;;;;;;8.50;3.17;;;;;;;-144.73;100.00;54686.84;5047244;28;20021;-73
2023/12/31 09:29:57;;;;;;;8.23;3.25;;;;;;;-144.73;100.00;54693.00;5033665;28;20472;-73
2023/12/31 09:32:23;;;;;;;10.43;3.50;;;;;;;-144.73;100.00;54703.28;5026232;28;20034;-73
2023/12/31 09:34:48;;;;;;;16.33;3.63;;;;;;;-144.73;100.00;54695.06;5013788;28;20125;-73
2023/12/31 09:37:18;;;;;;;16.17;4.10;;;;;;;-144.73;100.00;54715.59;5009825;28;20088;-74
2023/12/31 09:39:45;;;;;;;14.25;3.65;;;;;;;-144.73;100.00;54682.75;5011710;28;20025;-73
2023/12/31 09:42:15;;;;;;;11.77;3.15;;;;;;;-144.73;100.00;54682.75;5030008;28;20040;-73
2023/12/31 09:44:41;;;;;;;11.00;4.18;;;;;;;-144.73;100.00;54682.75;5010963;28;20068;-73
2023/12/31 09:47:11;;;;;;;12.23;3.40;;;;;;;-144.73;100.00;54703.28;5038899;28;20022;-70
2023/12/31 09:49:38;;;;;;;8.23;3.00;;;;;;;-144.73;100.00;54690.97;5043854;28;20035;-70
2023/12/31 09:52:05;;;;;;;11.82;3.10;;;;;;;-144.73;100.00;54674.53;5011939;28;20444;-71
2023/12/31 09:54:34;;;;;;;8.88;3.17;;;;;;;-144.73;100.00;54690.97;5019052;28;20416;-70
2023/12/31 09:57:01;;;;;;;9.48;2.90;;;;;;;-144.73;100.00;54697.13;5013626;28;20034;-70
2023/12/31 09:59:28;;;;;;;8.00;2.90;;;;;;;-144.73;100.00;54684.78;5021372;28;20018;-70
2023/12/31 10:02:04;;;;;;;15.55;3.58;;;;;;;-144.73;100.00;54686.84;5015741;28;20030;-70
2023/12/31 10:04:30;;;;;;;11.10;3.28;;;;;;;-144.73;100.00;54670.44;5034048;28;20026;-71
2023/12/31 10:06:56;;;;;;;6.30;2.80;;;;;;;-144.73;100.00;54637.59;5032806;28;20097;-70
2023/12/31 10:09:27;;;;;;;11.30;3.15;;;;;;;-144.73;100.00;54707.38;5015750;28;20018;-70
2023/12/31 10:11:54;;;;;;;10.80;3.10;;;;;;;-144.73;100.00;54680.69;5018291;28;20030;-70
2023/12/31 10:14:19;;;;;;;14.15;3.30;;;;;;;-144.73;100.00;54699.16;5021133;28;20022;-71
2023/12/31 10:16:46;;;;;;;5.97;3.10;;;;;;;-144.73;100.00;54674.53;5032924;28;20492;-70
2023/12/31 10:19:12;;;;;;;9.93;2.83;;;;;;;-144.73;100.00;54699.16;5022675;28;20025;-70
2023/12/31 10:21:39;;;;;;;12.52;2.95;;;;;;;-144.73;100.00;54719.69;5027989;28;20035;-71
2023/12/31 10:24:04;;;;;;;5.15;2.85;;;;;;;-144.73;100.00;54686.84;5033096;28;20036;-70
2023/12/31 10:26:30;;;;;;;8.48;2.70;;;;;;;-144.73;100.00;54690.97;5030995;28;20041;-71
2023/12/31 10:28:55;;;;;;;8.75;2.70;;;;;;;-144.73;100.00;54719.69;5030084;28;20071;-70
2023/12/31 10:31:21;;;;;;;8.77;2.97;;;;;;;-144.73;100.00;54678.63;5030378;28;20041;-70
2023/12/31 10:33:47;;;;;;;12.98;3.20;;;;;;;-144.73;100.00;54674.53;5013670;28;20050;-70
2023/12/31 10:36:20;;;;;;;7.35;2.97;;;;;;;-144.73;100.00;54674.53;5018229;28;20121;-71
2023/12/31 10:38:50;;;;;;;11.50;2.65;;;;;;;-144.73;100.00;54690.97;5011523;28;20113;-70
2023/12/31 10:41:20;;;;;;;7.75;2.42;;;;;;;-144.73;100.00;54674.53;5014145;28;20040;-70
2023/12/31 10:43:49;;;;;;;6.85;2.50;;;;;;;-144.73;100.00;54658.13;5026334;28;20032;-70
2023/12/31 10:46:16;;;;;;;10.77;2.65;;;;;;;-144.73;100.00;54715.59;5031205;28;20041;-71
2023/12/31 10:49:02;;;;;;;8.68;2.63;;;;;;;-144.73;100.00;54703.28;5032417;28;20033;-71
2023/12/31 10:51:28;;;;;;;6.78;2.63;;;;;;;-144.73;100.00;54734.06;5030407;28;20025;-71
2023/12/31 10:54:05;;;;;;;9.45;3.00;;;;;;;-144.73;100.00;54707.38;5031393;28;20021;-70
2023/12/31 10:56:32;;;;;;;8.35;2.75;;;;;;;-144.73;100.00;54719.69;5031115;28;20064;-71